sensor_id;sensor_type;location;lat;lon;timestamp;P1;durP1;ratioP1;P2;durP2;ratioP2
1346;SDS011;667;48.796;9.480;2023-05-29T00:01:18;5.87;;;5.27;;
1346;SDS011;667;48.796;9.480;2023-05-29T00:03:44;7.10;;;5.53;;
1346;SDS011;667;48.796;9.480;2023-05-29T00:06:10;5.47;;;4.97;;
1346;SDS011;667;48.796;9.480;2023-05-29T00:08:36;8.27;;;4.90;;
1346;SDS011;667;48.796;9.480;2023-05-29T00:11:01;6.03;;;5.10;;
1346;SDS011;667;48.796;9.480;2023-05-29T00:13:27;7.77;;;5.47;;
1346;SDS011;667;48.796;9.480;2023-05-29T00:15:52;7.53;;;5.83;;
1346;SDS011;667;48.796;9.480;2023-05-29T00:18:18;7.63;;;5.70;;
1346;SDS011;667;48.796;9.480;2023-05-29T00:20:43;6.63;;;4.80;;
1346;SDS011;667;48.796;9.480;2023-05-29T00:23:09;5.50;;;4.70;;
1346;SDS011;667;48.796;9.480;2023-05-29T00:25:35;7.77;;;5.47;;
1346;SDS011;667;48.796;9.480;2023-05-29T00:28:00;9.03;;;4.93;;
1346;SDS011;667;48.796;9.480;2023-05-29T00:30:26;6.83;;;5.20;;
1346;SDS011;667;48.796;9.480;2023-05-29T00:32:52;4.80;;;4.37;;
1346;SDS011;667;48.796;9.480;2023-05-29T00:35:18;6.93;;;4.67;;
1346;SDS011;667;48.796;9.480;2023-05-29T00:37:44;7.80;;;4.70;;
1346;SDS011;667;48.796;9.480;2023-05-29T00:40:10;6.17;;;5.10;;
1346;SDS011;667;48.796;9.480;2023-05-29T00:42:36;6.00;;;5.23;;
1346;SDS011;667;48.796;9.480;2023-05-29T00:45:02;5.20;;;4.70;;
1346;SDS011;667;48.796;9.480;2023-05-29T00:47:28;6.77;;;5.43;;
1346;SDS011;667;48.796;9.480;2023-05-29T00:49:55;5.70;;;5.17;;
1346;SDS011;667;48.796;9.480;2023-05-29T00:52:21;8.90;;;4.83;;
1346;SDS011;667;48.796;9.480;2023-05-29T00:54:48;5.83;;;4.63;;
1346;SDS011;667;48.796;9.480;2023-05-29T00:57:13;4.67;;;4.27;;
1346;SDS011;667;48.796;9.480;2023-05-29T00:59:41;5.10;;;4.60;;
1346;SDS011;667;48.796;9.480;2023-05-29T01:02:07;5.63;;;4.77;;
1346;SDS011;667;48.796;9.480;2023-05-29T01:04:33;5.70;;;4.75;;
1346;SDS011;667;48.796;9.480;2023-05-29T01:07:00;5.10;;;4.60;;
1346;SDS011;667;48.796;9.480;2023-05-29T01:09:27;5.30;;;4.80;;
1346;SDS011;667;48.796;9.480;2023-05-29T01:11:59;5.33;;;4.50;;
1346;SDS011;667;48.796;9.480;2023-05-29T01:14:33;7.65;;;4.68;;
1346;SDS011;667;48.796;9.480;2023-05-29T01:19:57;5.60;;;4.30;;
1346;SDS011;667;48.796;9.480;2023-05-29T01:25:11;6.50;;;4.55;;
1346;SDS011;667;48.796;9.480;2023-05-29T01:27:45;5.90;;;5.35;;
1346;SDS011;667;48.796;9.480;2023-05-29T01:30:12;4.53;;;4.13;;
1346;SDS011;667;48.796;9.480;2023-05-29T01:32:40;5.40;;;4.27;;
1346;SDS011;667;48.796;9.480;2023-05-29T01:35:07;7.30;;;4.78;;
1346;SDS011;667;48.796;9.480;2023-05-29T01:37:33;9.32;;;4.45;;
1346;SDS011;667;48.796;9.480;2023-05-29T01:39:59;5.57;;;4.80;;
1346;SDS011;667;48.796;9.480;2023-05-29T01:42:25;5.82;;;4.40;;
1346;SDS011;667;48.796;9.480;2023-05-29T01:44:52;6.47;;;4.72;;
1346;SDS011;667;48.796;9.480;2023-05-29T01:47:19;4.60;;;3.90;;
1346;SDS011;667;48.796;9.480;2023-05-29T01:49:45;6.60;;;4.85;;
1346;SDS011;667;48.796;9.480;2023-05-29T01:52:14;5.88;;;4.55;;
1346;SDS011;667;48.796;9.480;2023-05-29T01:54:40;5.43;;;4.90;;
1346;SDS011;667;48.796;9.480;2023-05-29T01:57:06;5.20;;;4.53;;
1346;SDS011;667;48.796;9.480;2023-05-29T01:59:32;5.80;;;5.00;;
1346;SDS011;667;48.796;9.480;2023-05-29T02:02:06;5.60;;;4.57;;
1346;SDS011;667;48.796;9.480;2023-05-29T02:04:33;5.10;;;4.53;;
1346;SDS011;667;48.796;9.480;2023-05-29T02:06:58;5.10;;;4.60;;
1346;SDS011;667;48.796;9.480;2023-05-29T02:09:24;5.90;;;4.40;;
1346;SDS011;667;48.796;9.480;2023-05-29T02:11:50;5.95;;;4.85;;
1346;SDS011;667;48.796;9.480;2023-05-29T02:14:19;5.53;;;4.20;;
1346;SDS011;667;48.796;9.480;2023-05-29T02:16:44;5.35;;;4.35;;
1346;SDS011;667;48.796;9.480;2023-05-29T02:19:10;4.70;;;4.27;;
1346;SDS011;667;48.796;9.480;2023-05-29T02:21:39;7.57;;;4.97;;
1346;SDS011;667;48.796;9.480;2023-05-29T02:24:07;7.68;;;3.90;;
1346;SDS011;667;48.796;9.480;2023-05-29T02:26:33;5.57;;;4.60;;
1346;SDS011;667;48.796;9.480;2023-05-29T02:29:01;4.82;;;4.15;;
1346;SDS011;667;48.796;9.480;2023-05-29T02:31:27;4.50;;;4.10;;
1346;SDS011;667;48.796;9.480;2023-05-29T02:33:55;4.88;;;4.13;;
1346;SDS011;667;48.796;9.480;2023-05-29T02:36:21;7.20;;;4.70;;
1346;SDS011;667;48.796;9.480;2023-05-29T02:38:46;5.60;;;5.00;;
1346;SDS011;667;48.796;9.480;2023-05-29T02:41:15;5.60;;;4.40;;
1346;SDS011;667;48.796;9.480;2023-05-29T02:43:40;5.43;;;4.93;;
1346;SDS011;667;48.796;9.480;2023-05-29T02:46:06;8.50;;;4.43;;
1346;SDS011;667;48.796;9.480;2023-05-29T02:48:31;4.83;;;4.00;;
1346;SDS011;667;48.796;9.480;2023-05-29T02:50:57;4.20;;;3.70;;
1346;SDS011;667;48.796;9.480;2023-05-29T02:53:22;5.93;;;5.30;;
1346;SDS011;667;48.796;9.480;2023-05-29T02:55:48;5.37;;;4.10;;
1346;SDS011;667;48.796;9.480;2023-05-29T02:58:19;5.30;;;4.80;;
1346;SDS011;667;48.796;9.480;2023-05-29T03:00:46;6.00;;;5.10;;
1346;SDS011;667;48.796;9.480;2023-05-29T03:03:11;6.07;;;4.30;;
1346;SDS011;667;48.796;9.480;2023-05-29T03:05:40;5.20;;;4.65;;
1346;SDS011;667;48.796;9.480;2023-05-29T03:08:05;6.37;;;5.27;;
1346;SDS011;667;48.796;9.480;2023-05-29T03:10:31;4.60;;;4.10;;
1346;SDS011;667;48.796;9.480;2023-05-29T03:12:56;6.37;;;4.30;;
1346;SDS011;667;48.796;9.480;2023-05-29T03:15:22;5.47;;;4.33;;
1346;SDS011;667;48.796;9.480;2023-05-29T03:17:47;5.10;;;4.57;;
1346;SDS011;667;48.796;9.480;2023-05-29T03:20:13;8.73;;;4.80;;
1346;SDS011;667;48.796;9.480;2023-05-29T03:22:38;9.37;;;4.20;;
1346;SDS011;667;48.796;9.480;2023-05-29T03:25:06;5.07;;;4.57;;
1346;SDS011;667;48.796;9.480;2023-05-29T03:27:32;6.75;;;4.60;;
1346;SDS011;667;48.796;9.480;2023-05-29T03:29:58;7.20;;;4.57;;
1346;SDS011;667;48.796;9.480;2023-05-29T03:32:24;4.93;;;4.30;;
1346;SDS011;667;48.796;9.480;2023-05-29T03:34:49;5.73;;;4.70;;
1346;SDS011;667;48.796;9.480;2023-05-29T03:37:15;6.80;;;5.13;;
1346;SDS011;667;48.796;9.480;2023-05-29T03:39:41;4.85;;;4.35;;
1346;SDS011;667;48.796;9.480;2023-05-29T03:42:07;5.57;;;4.73;;
1346;SDS011;667;48.796;9.480;2023-05-29T03:44:32;6.60;;;4.97;;
1346;SDS011;667;48.796;9.480;2023-05-29T03:46:58;5.57;;;5.00;;
1346;SDS011;667;48.796;9.480;2023-05-29T03:49:24;7.23;;;4.57;;
1346;SDS011;667;48.796;9.480;2023-05-29T03:51:49;6.10;;;4.67;;
1346;SDS011;667;48.796;9.480;2023-05-29T03:54:15;6.63;;;5.43;;
1346;SDS011;667;48.796;9.480;2023-05-29T03:56:41;6.27;;;4.83;;
1346;SDS011;667;48.796;9.480;2023-05-29T03:59:06;5.73;;;5.13;;
1346;SDS011;667;48.796;9.480;2023-05-29T04:01:32;5.80;;;4.53;;
1346;SDS011;667;48.796;9.480;2023-05-29T04:03:58;6.03;;;4.93;;
1346;SDS011;667;48.796;9.480;2023-05-29T04:06:23;6.17;;;4.87;;
1346;SDS011;667;48.796;9.480;2023-05-29T04:08:49;5.93;;;5.33;;
1346;SDS011;667;48.796;9.480;2023-05-29T04:11:15;5.43;;;4.30;;
1346;SDS011;667;48.796;9.480;2023-05-29T04:13:40;5.50;;;4.67;;
1346;SDS011;667;48.796;9.480;2023-05-29T04:16:06;5.30;;;4.50;;
1346;SDS011;667;48.796;9.480;2023-05-29T04:18:32;4.80;;;4.27;;
1346;SDS011;667;48.796;9.480;2023-05-29T04:20:58;6.03;;;5.07;;
1346;SDS011;667;48.796;9.480;2023-05-29T04:23:24;5.80;;;4.25;;
1346;SDS011;667;48.796;9.480;2023-05-29T04:25:49;7.23;;;4.37;;
1346;SDS011;667;48.796;9.480;2023-05-29T04:28:17;5.45;;;4.70;;
1346;SDS011;667;48.796;9.480;2023-05-29T04:30:46;5.93;;;4.78;;
1346;SDS011;667;48.796;9.480;2023-05-29T04:33:12;5.07;;;4.33;;
1346;SDS011;667;48.796;9.480;2023-05-29T04:35:38;5.37;;;4.60;;
1346;SDS011;667;48.796;9.480;2023-05-29T04:38:03;10.23;;;5.10;;
1346;SDS011;667;48.796;9.480;2023-05-29T04:40:29;5.40;;;4.53;;
1346;SDS011;667;48.796;9.480;2023-05-29T04:42:56;5.45;;;4.70;;
1346;SDS011;667;48.796;9.480;2023-05-29T04:45:25;5.20;;;4.70;;
1346;SDS011;667;48.796;9.480;2023-05-29T04:47:51;6.33;;;5.37;;
1346;SDS011;667;48.796;9.480;2023-05-29T04:50:18;6.35;;;4.90;;
1346;SDS011;667;48.796;9.480;2023-05-29T04:52:43;5.40;;;4.63;;
1346;SDS011;667;48.796;9.480;2023-05-29T04:55:09;6.67;;;4.90;;
1346;SDS011;667;48.796;9.480;2023-05-29T04:57:35;5.10;;;4.60;;
1346;SDS011;667;48.796;9.480;2023-05-29T05:00:01;5.20;;;4.40;;
1346;SDS011;667;48.796;9.480;2023-05-29T05:02:31;5.70;;;4.63;;
1346;SDS011;667;48.796;9.480;2023-05-29T05:04:57;7.37;;;5.10;;
1346;SDS011;667;48.796;9.480;2023-05-29T05:07:23;6.03;;;5.35;;
1346;SDS011;667;48.796;9.480;2023-05-29T05:09:49;6.30;;;5.70;;
1346;SDS011;667;48.796;9.480;2023-05-29T05:12:15;7.87;;;6.60;;
1346;SDS011;667;48.796;9.480;2023-05-29T05:14:40;7.77;;;6.10;;
1346;SDS011;667;48.796;9.480;2023-05-29T05:17:06;6.30;;;5.70;;
1346;SDS011;667;48.796;9.480;2023-05-29T05:19:32;11.07;;;6.10;;
1346;SDS011;667;48.796;9.480;2023-05-29T05:21:57;7.53;;;5.80;;
1346;SDS011;667;48.796;9.480;2023-05-29T05:24:23;8.23;;;6.23;;
1346;SDS011;667;48.796;9.480;2023-05-29T05:26:48;7.83;;;6.00;;
1346;SDS011;667;48.796;9.480;2023-05-29T05:29:14;6.20;;;5.60;;
1346;SDS011;667;48.796;9.480;2023-05-29T05:31:40;6.10;;;5.50;;
1346;SDS011;667;48.796;9.480;2023-05-29T05:34:05;6.73;;;6.07;;
1346;SDS011;667;48.796;9.480;2023-05-29T05:36:31;6.17;;;5.57;;
1346;SDS011;667;48.796;9.480;2023-05-29T05:38:57;7.27;;;5.97;;
1346;SDS011;667;48.796;9.480;2023-05-29T05:41:23;9.10;;;6.47;;
1346;SDS011;667;48.796;9.480;2023-05-29T05:43:49;6.40;;;5.80;;
1346;SDS011;667;48.796;9.480;2023-05-29T05:46:15;6.80;;;6.07;;
1346;SDS011;667;48.796;9.480;2023-05-29T05:48:42;6.70;;;6.00;;
1346;SDS011;667;48.796;9.480;2023-05-29T05:51:07;6.03;;;5.47;;
1346;SDS011;667;48.796;9.480;2023-05-29T05:53:33;7.33;;;5.90;;
1346;SDS011;667;48.796;9.480;2023-05-29T05:55:58;7.23;;;6.30;;
1346;SDS011;667;48.796;9.480;2023-05-29T05:58:24;7.33;;;6.30;;
1346;SDS011;667;48.796;9.480;2023-05-29T06:00:50;7.30;;;6.23;;
1346;SDS011;667;48.796;9.480;2023-05-29T06:03:17;7.93;;;6.50;;
1346;SDS011;667;48.796;9.480;2023-05-29T06:05:43;8.23;;;5.70;;
1346;SDS011;667;48.796;9.480;2023-05-29T06:08:08;7.23;;;6.50;;
1346;SDS011;667;48.796;9.480;2023-05-29T06:10:34;8.20;;;6.03;;
1346;SDS011;667;48.796;9.480;2023-05-29T06:12:59;8.73;;;6.10;;
1346;SDS011;667;48.796;9.480;2023-05-29T06:15:25;6.37;;;5.77;;
1346;SDS011;667;48.796;9.480;2023-05-29T06:17:51;7.40;;;6.00;;
1346;SDS011;667;48.796;9.480;2023-05-29T06:20:17;7.27;;;5.67;;
1346;SDS011;667;48.796;9.480;2023-05-29T06:22:44;10.20;;;5.73;;
1346;SDS011;667;48.796;9.480;2023-05-29T06:25:15;8.63;;;5.83;;
1346;SDS011;667;48.796;9.480;2023-05-29T06:27:44;6.33;;;5.73;;
1346;SDS011;667;48.796;9.480;2023-05-29T06:30:10;6.60;;;5.30;;
1346;SDS011;667;48.796;9.480;2023-05-29T06:32:37;7.47;;;6.10;;
1346;SDS011;667;48.796;9.480;2023-05-29T06:35:02;7.40;;;5.87;;
1346;SDS011;667;48.796;9.480;2023-05-29T06:37:31;6.40;;;5.80;;
1346;SDS011;667;48.796;9.480;2023-05-29T06:39:56;8.90;;;6.10;;
1346;SDS011;667;48.796;9.480;2023-05-29T06:42:22;6.67;;;5.90;;
1346;SDS011;667;48.796;9.480;2023-05-29T06:44:47;7.37;;;6.30;;
1346;SDS011;667;48.796;9.480;2023-05-29T06:47:13;6.47;;;5.50;;
1346;SDS011;667;48.796;9.480;2023-05-29T06:49:39;9.00;;;6.00;;
1346;SDS011;667;48.796;9.480;2023-05-29T06:52:04;10.93;;;5.57;;
1346;SDS011;667;48.796;9.480;2023-05-29T06:54:30;7.70;;;5.07;;
1346;SDS011;667;48.796;9.480;2023-05-29T06:56:55;6.93;;;5.80;;
1346;SDS011;667;48.796;9.480;2023-05-29T06:59:21;9.27;;;6.20;;
1346;SDS011;667;48.796;9.480;2023-05-29T07:01:47;5.77;;;5.17;;
1346;SDS011;667;48.796;9.480;2023-05-29T07:04:13;7.37;;;5.73;;
1346;SDS011;667;48.796;9.480;2023-05-29T07:06:38;7.23;;;5.03;;
1346;SDS011;667;48.796;9.480;2023-05-29T07:09:07;6.70;;;5.33;;
1346;SDS011;667;48.796;9.480;2023-05-29T07:11:33;7.10;;;6.03;;
1346;SDS011;667;48.796;9.480;2023-05-29T07:13:58;7.00;;;5.80;;
1346;SDS011;667;48.796;9.480;2023-05-29T07:16:24;6.17;;;5.47;;
1346;SDS011;667;48.796;9.480;2023-05-29T07:18:50;6.57;;;5.83;;
1346;SDS011;667;48.796;9.480;2023-05-29T07:21:16;7.17;;;5.50;;
1346;SDS011;667;48.796;9.480;2023-05-29T07:23:42;5.70;;;5.20;;
1346;SDS011;667;48.796;9.480;2023-05-29T07:26:07;5.97;;;5.40;;
1346;SDS011;667;48.796;9.480;2023-05-29T07:28:33;6.10;;;5.50;;
1346;SDS011;667;48.796;9.480;2023-05-29T07:30:58;7.70;;;5.20;;
1346;SDS011;667;48.796;9.480;2023-05-29T07:33:24;9.43;;;5.33;;
1346;SDS011;667;48.796;9.480;2023-05-29T07:35:50;6.00;;;5.40;;
1346;SDS011;667;48.796;9.480;2023-05-29T07:38:15;6.87;;;5.30;;
1346;SDS011;667;48.796;9.480;2023-05-29T07:40:41;7.30;;;4.83;;
1346;SDS011;667;48.796;9.480;2023-05-29T07:43:07;5.83;;;5.23;;
1346;SDS011;667;48.796;9.480;2023-05-29T07:45:32;6.80;;;5.30;;
1346;SDS011;667;48.796;9.480;2023-05-29T07:47:58;6.70;;;6.00;;
1346;SDS011;667;48.796;9.480;2023-05-29T07:50:26;6.40;;;5.60;;
1346;SDS011;667;48.796;9.480;2023-05-29T07:52:52;7.53;;;5.80;;
1346;SDS011;667;48.796;9.480;2023-05-29T07:55:18;6.10;;;5.17;;
1346;SDS011;667;48.796;9.480;2023-05-29T07:57:43;7.30;;;5.43;;
1346;SDS011;667;48.796;9.480;2023-05-29T08:00:09;7.30;;;5.90;;
1346;SDS011;667;48.796;9.480;2023-05-29T08:02:38;5.97;;;5.37;;
1346;SDS011;667;48.796;9.480;2023-05-29T08:05:04;8.67;;;5.70;;
1346;SDS011;667;48.796;9.480;2023-05-29T08:07:30;6.90;;;6.20;;
1346;SDS011;667;48.796;9.480;2023-05-29T08:09:57;6.07;;;5.07;;
1346;SDS011;667;48.796;9.480;2023-05-29T08:12:22;7.30;;;6.60;;
1346;SDS011;667;48.796;9.480;2023-05-29T08:14:48;7.47;;;6.47;;
1346;SDS011;667;48.796;9.480;2023-05-29T08:17:16;8.13;;;6.23;;
1346;SDS011;667;48.796;9.480;2023-05-29T08:19:42;6.83;;;5.87;;
1346;SDS011;667;48.796;9.480;2023-05-29T08:22:07;6.00;;;5.30;;
1346;SDS011;667;48.796;9.480;2023-05-29T08:24:37;6.80;;;6.20;;
1346;SDS011;667;48.796;9.480;2023-05-29T08:27:02;7.33;;;5.30;;
1346;SDS011;667;48.796;9.480;2023-05-29T08:29:28;6.17;;;5.57;;
1346;SDS011;667;48.796;9.480;2023-05-29T08:31:53;5.83;;;5.30;;
1346;SDS011;667;48.796;9.480;2023-05-29T08:34:19;7.03;;;6.27;;
1346;SDS011;667;48.796;9.480;2023-05-29T08:36:45;7.10;;;5.70;;
1346;SDS011;667;48.796;9.480;2023-05-29T08:39:10;7.87;;;5.43;;
1346;SDS011;667;48.796;9.480;2023-05-29T08:41:53;7.53;;;5.77;;
1346;SDS011;667;48.796;9.480;2023-05-29T08:44:22;8.93;;;6.03;;
1346;SDS011;667;48.796;9.480;2023-05-29T08:46:52;6.70;;;5.73;;
1346;SDS011;667;48.796;9.480;2023-05-29T08:49:20;6.27;;;5.47;;
1346;SDS011;667;48.796;9.480;2023-05-29T08:51:47;7.83;;;5.90;;
1346;SDS011;667;48.796;9.480;2023-05-29T08:54:18;7.10;;;4.97;;
1346;SDS011;667;48.796;9.480;2023-05-29T08:56:44;6.87;;;6.20;;
1346;SDS011;667;48.796;9.480;2023-05-29T08:59:10;8.10;;;6.20;;
1346;SDS011;667;48.796;9.480;2023-05-29T09:01:36;6.43;;;5.77;;
1346;SDS011;667;48.796;9.480;2023-05-29T09:04:03;7.07;;;6.13;;
1346;SDS011;667;48.796;9.480;2023-05-29T09:06:29;6.80;;;5.90;;
1346;SDS011;667;48.796;9.480;2023-05-29T09:08:55;6.67;;;5.90;;
1346;SDS011;667;48.796;9.480;2023-05-29T09:11:22;5.70;;;5.20;;
1346;SDS011;667;48.796;9.480;2023-05-29T09:13:48;6.30;;;5.27;;
1346;SDS011;667;48.796;9.480;2023-05-29T09:16:16;5.23;;;4.73;;
1346;SDS011;667;48.796;9.480;2023-05-29T09:18:42;6.50;;;5.33;;
1346;SDS011;667;48.796;9.480;2023-05-29T09:21:10;5.73;;;5.23;;
1346;SDS011;667;48.796;9.480;2023-05-29T09:23:52;7.20;;;5.07;;
1346;SDS011;667;48.796;9.480;2023-05-29T09:26:19;6.87;;;4.57;;
1346;SDS011;667;48.796;9.480;2023-05-29T09:28:46;6.23;;;4.87;;
1346;SDS011;667;48.796;9.480;2023-05-29T09:31:13;6.70;;;5.90;;
1346;SDS011;667;48.796;9.480;2023-05-29T09:33:48;5.10;;;4.50;;
1346;SDS011;667;48.796;9.480;2023-05-29T09:36:23;5.27;;;4.77;;
1346;SDS011;667;48.796;9.480;2023-05-29T09:38:49;5.60;;;5.10;;
1346;SDS011;667;48.796;9.480;2023-05-29T09:41:22;6.07;;;4.97;;
1346;SDS011;667;48.796;9.480;2023-05-29T09:43:51;7.30;;;5.23;;
1346;SDS011;667;48.796;9.480;2023-05-29T09:46:19;7.00;;;5.17;;
1346;SDS011;667;48.796;9.480;2023-05-29T09:48:46;5.60;;;5.00;;
1346;SDS011;667;48.796;9.480;2023-05-29T09:51:21;5.47;;;4.97;;
1346;SDS011;667;48.796;9.480;2023-05-29T09:53:48;5.67;;;4.30;;
1346;SDS011;667;48.796;9.480;2023-05-29T09:56:15;7.47;;;5.00;;
1346;SDS011;667;48.796;9.480;2023-05-29T09:58:43;6.30;;;4.70;;
1346;SDS011;667;48.796;9.480;2023-05-29T10:01:13;6.53;;;5.00;;
1346;SDS011;667;48.796;9.480;2023-05-29T10:03:42;6.40;;;4.60;;
1346;SDS011;667;48.796;9.480;2023-05-29T10:06:10;5.97;;;5.40;;
1346;SDS011;667;48.796;9.480;2023-05-29T10:08:42;4.93;;;4.50;;
1346;SDS011;667;48.796;9.480;2023-05-29T10:11:14;5.50;;;5.00;;
1346;SDS011;667;48.796;9.480;2023-05-29T10:13:46;5.60;;;5.10;;
1346;SDS011;667;48.796;9.480;2023-05-29T10:16:14;8.07;;;4.43;;
1346;SDS011;667;48.796;9.480;2023-05-29T10:18:43;7.27;;;4.73;;
1346;SDS011;667;48.796;9.480;2023-05-29T10:21:14;7.90;;;4.73;;
1346;SDS011;667;48.796;9.480;2023-05-29T10:23:40;4.77;;;4.27;;
1346;SDS011;667;48.796;9.480;2023-05-29T10:28:56;5.20;;;4.60;;
1346;SDS011;667;48.796;9.480;2023-05-29T10:34:41;4.90;;;4.40;;
1346;SDS011;667;48.796;9.480;2023-05-29T10:40:07;5.20;;;4.70;;
1346;SDS011;667;48.796;9.480;2023-05-29T10:42:47;6.00;;;4.70;;
1346;SDS011;667;48.796;9.480;2023-05-29T10:53:02;5.07;;;4.60;;
1346;SDS011;667;48.796;9.480;2023-05-29T10:55:34;6.13;;;4.40;;
1346;SDS011;667;48.796;9.480;2023-05-29T10:58:19;4.70;;;4.27;;
1346;SDS011;667;48.796;9.480;2023-05-29T11:00:48;7.17;;;4.80;;
1346;SDS011;667;48.796;9.480;2023-05-29T11:03:14;5.97;;;4.93;;
1346;SDS011;667;48.796;9.480;2023-05-29T11:08:33;6.03;;;4.97;;
1346;SDS011;667;48.796;9.480;2023-05-29T11:13:52;6.63;;;5.00;;
1346;SDS011;667;48.796;9.480;2023-05-29T11:16:35;5.27;;;3.87;;
1346;SDS011;667;48.796;9.480;2023-05-29T11:19:08;5.40;;;4.90;;
1346;SDS011;667;48.796;9.480;2023-05-29T11:21:53;4.53;;;4.10;;
1346;SDS011;667;48.796;9.480;2023-05-29T11:24:32;5.07;;;4.60;;
1346;SDS011;667;48.796;9.480;2023-05-29T11:26:58;4.57;;;4.17;;
1346;SDS011;667;48.796;9.480;2023-05-29T11:29:29;4.27;;;3.87;;
1346;SDS011;667;48.796;9.480;2023-05-29T11:32:00;5.23;;;4.47;;
1346;SDS011;667;48.796;9.480;2023-05-29T11:34:28;4.87;;;3.97;;
1346;SDS011;667;48.796;9.480;2023-05-29T11:36:56;5.87;;;3.70;;
1346;SDS011;667;48.796;9.480;2023-05-29T11:39:22;5.70;;;4.87;;
1346;SDS011;667;48.796;9.480;2023-05-29T11:41:51;5.00;;;4.60;;
1346;SDS011;667;48.796;9.480;2023-05-29T11:44:21;4.77;;;4.37;;
1346;SDS011;667;48.796;9.480;2023-05-29T11:47:01;4.23;;;3.83;;
1346;SDS011;667;48.796;9.480;2023-05-29T11:49:28;4.70;;;4.20;;
1346;SDS011;667;48.796;9.480;2023-05-29T11:52:04;4.90;;;4.03;;
1346;SDS011;667;48.796;9.480;2023-05-29T11:54:32;5.33;;;4.53;;
1346;SDS011;667;48.796;9.480;2023-05-29T11:56:59;4.70;;;4.30;;
1346;SDS011;667;48.796;9.480;2023-05-29T11:59:28;4.73;;;4.30;;
1346;SDS011;667;48.796;9.480;2023-05-29T12:01:54;4.87;;;4.40;;
1346;SDS011;667;48.796;9.480;2023-05-29T12:04:20;5.13;;;4.67;;
1346;SDS011;667;48.796;9.480;2023-05-29T12:06:45;7.23;;;4.30;;
1346;SDS011;667;48.796;9.480;2023-05-29T12:09:23;5.00;;;4.07;;
1346;SDS011;667;48.796;9.480;2023-05-29T12:11:52;5.50;;;4.43;;
1346;SDS011;667;48.796;9.480;2023-05-29T12:14:18;4.47;;;4.07;;
1346;SDS011;667;48.796;9.480;2023-05-29T12:16:44;4.47;;;3.93;;
1346;SDS011;667;48.796;9.480;2023-05-29T12:19:10;5.20;;;4.57;;
1346;SDS011;667;48.796;9.480;2023-05-29T12:21:36;4.83;;;4.33;;
1346;SDS011;667;48.796;9.480;2023-05-29T12:24:08;4.80;;;4.30;;
1346;SDS011;667;48.796;9.480;2023-05-29T12:26:34;4.63;;;4.23;;
1346;SDS011;667;48.796;9.480;2023-05-29T12:29:02;4.57;;;4.17;;
1346;SDS011;667;48.796;9.480;2023-05-29T12:31:29;4.67;;;4.27;;
1346;SDS011;667;48.796;9.480;2023-05-29T12:34:07;4.53;;;4.13;;
1346;SDS011;667;48.796;9.480;2023-05-29T12:36:33;4.30;;;3.90;;
1346;SDS011;667;48.796;9.480;2023-05-29T12:38:58;4.20;;;3.80;;
1346;SDS011;667;48.796;9.480;2023-05-29T12:41:29;5.30;;;4.80;;
1346;SDS011;667;48.796;9.480;2023-05-29T12:43:58;4.47;;;4.07;;
1346;SDS011;667;48.796;9.480;2023-05-29T12:46:26;5.37;;;4.87;;
1346;SDS011;667;48.796;9.480;2023-05-29T12:48:55;4.87;;;4.40;;
1346;SDS011;667;48.796;9.480;2023-05-29T12:51:25;4.60;;;4.20;;
1346;SDS011;667;48.796;9.480;2023-05-29T12:53:51;5.00;;;4.30;;
1346;SDS011;667;48.796;9.480;2023-05-29T12:56:19;4.80;;;4.40;;
1346;SDS011;667;48.796;9.480;2023-05-29T12:58:47;5.80;;;4.47;;
1346;SDS011;667;48.796;9.480;2023-05-29T13:01:13;6.73;;;5.03;;
1346;SDS011;667;48.796;9.480;2023-05-29T13:03:39;5.33;;;4.80;;
1346;SDS011;667;48.796;9.480;2023-05-29T13:06:05;5.70;;;4.93;;
1346;SDS011;667;48.796;9.480;2023-05-29T13:08:32;5.57;;;4.17;;
1346;SDS011;667;48.796;9.480;2023-05-29T13:10:57;5.53;;;4.20;;
1346;SDS011;667;48.796;9.480;2023-05-29T13:13:23;4.90;;;4.50;;
1346;SDS011;667;48.796;9.480;2023-05-29T13:15:48;6.50;;;4.67;;
1346;SDS011;667;48.796;9.480;2023-05-29T13:18:14;5.63;;;5.13;;
1346;SDS011;667;48.796;9.480;2023-05-29T13:20:40;5.30;;;4.83;;
1346;SDS011;667;48.796;9.480;2023-05-29T13:23:05;6.70;;;4.53;;
1346;SDS011;667;48.796;9.480;2023-05-29T13:25:32;4.93;;;4.53;;
1346;SDS011;667;48.796;9.480;2023-05-29T13:27:57;4.57;;;4.17;;
1346;SDS011;667;48.796;9.480;2023-05-29T13:30:23;5.37;;;4.53;;
1346;SDS011;667;48.796;9.480;2023-05-29T13:32:49;5.67;;;5.07;;
1346;SDS011;667;48.796;9.480;2023-05-29T13:35:16;4.90;;;4.50;;
1346;SDS011;667;48.796;9.480;2023-05-29T13:37:41;5.70;;;5.20;;
1346;SDS011;667;48.796;9.480;2023-05-29T13:40:10;5.10;;;4.70;;
1346;SDS011;667;48.796;9.480;2023-05-29T13:42:38;4.90;;;4.40;;
1346;SDS011;667;48.796;9.480;2023-05-29T13:45:04;5.00;;;4.60;;
1346;SDS011;667;48.796;9.480;2023-05-29T13:47:31;5.43;;;4.33;;
1346;SDS011;667;48.796;9.480;2023-05-29T13:49:57;5.03;;;4.33;;
1346;SDS011;667;48.796;9.480;2023-05-29T13:52:23;7.33;;;4.80;;
1346;SDS011;667;48.796;9.480;2023-05-29T13:54:49;6.67;;;4.57;;
1346;SDS011;667;48.796;9.480;2023-05-29T13:57:15;5.20;;;4.70;;
1346;SDS011;667;48.796;9.480;2023-05-29T13:59:40;6.53;;;4.67;;
1346;SDS011;667;48.796;9.480;2023-05-29T14:02:06;5.17;;;4.73;;
1346;SDS011;667;48.796;9.480;2023-05-29T14:04:33;5.13;;;4.20;;
1346;SDS011;667;48.796;9.480;2023-05-29T14:06:59;5.70;;;5.20;;
1346;SDS011;667;48.796;9.480;2023-05-29T14:09:25;4.83;;;4.40;;
1346;SDS011;667;48.796;9.480;2023-05-29T14:11:57;4.50;;;4.10;;
1346;SDS011;667;48.796;9.480;2023-05-29T14:14:24;5.43;;;4.93;;
1346;SDS011;667;48.796;9.480;2023-05-29T14:16:51;4.53;;;4.13;;
1346;SDS011;667;48.796;9.480;2023-05-29T14:19:17;5.13;;;4.63;;
1346;SDS011;667;48.796;9.480;2023-05-29T14:21:45;5.30;;;4.80;;
1346;SDS011;667;48.796;9.480;2023-05-29T14:24:11;7.90;;;4.70;;
1346;SDS011;667;48.796;9.480;2023-05-29T14:26:38;5.17;;;4.67;;
1346;SDS011;667;48.796;9.480;2023-05-29T14:29:03;4.83;;;4.43;;
1346;SDS011;667;48.796;9.480;2023-05-29T14:31:29;5.67;;;4.27;;
1346;SDS011;667;48.796;9.480;2023-05-29T14:33:55;7.40;;;4.20;;
1346;SDS011;667;48.796;9.480;2023-05-29T14:36:21;6.27;;;4.10;;
1346;SDS011;667;48.796;9.480;2023-05-29T14:38:46;4.83;;;4.33;;
1346;SDS011;667;48.796;9.480;2023-05-29T14:41:14;4.17;;;3.77;;
1346;SDS011;667;48.796;9.480;2023-05-29T14:43:41;5.03;;;4.30;;
1346;SDS011;667;48.796;9.480;2023-05-29T14:46:07;5.33;;;4.47;;
1346;SDS011;667;48.796;9.480;2023-05-29T14:48:33;4.33;;;3.93;;
1346;SDS011;667;48.796;9.480;2023-05-29T14:50:59;5.13;;;4.63;;
1346;SDS011;667;48.796;9.480;2023-05-29T14:53:25;4.40;;;4.00;;
1346;SDS011;667;48.796;9.480;2023-05-29T14:55:50;5.40;;;4.40;;
1346;SDS011;667;48.796;9.480;2023-05-29T14:58:16;4.00;;;3.70;;
1346;SDS011;667;48.796;9.480;2023-05-29T15:00:41;5.07;;;4.57;;
1346;SDS011;667;48.796;9.480;2023-05-29T15:03:07;4.40;;;4.00;;
1346;SDS011;667;48.796;9.480;2023-05-29T15:05:32;4.33;;;3.93;;
1346;SDS011;667;48.796;9.480;2023-05-29T15:07:58;4.70;;;4.30;;
1346;SDS011;667;48.796;9.480;2023-05-29T15:10:25;4.40;;;4.00;;
1346;SDS011;667;48.796;9.480;2023-05-29T15:12:51;5.50;;;5.00;;
1346;SDS011;667;48.796;9.480;2023-05-29T15:15:25;4.43;;;4.03;;
1346;SDS011;667;48.796;9.480;2023-05-29T15:17:52;4.90;;;4.50;;
1346;SDS011;667;48.796;9.480;2023-05-29T15:20:21;4.20;;;3.90;;
1346;SDS011;667;48.796;9.480;2023-05-29T15:22:47;5.17;;;4.03;;
1346;SDS011;667;48.796;9.480;2023-05-29T15:25:14;4.97;;;4.57;;
1346;SDS011;667;48.796;9.480;2023-05-29T15:27:40;4.10;;;3.70;;
1346;SDS011;667;48.796;9.480;2023-05-29T15:30:09;4.43;;;4.03;;
1346;SDS011;667;48.796;9.480;2023-05-29T15:32:37;8.37;;;4.30;;
1346;SDS011;667;48.796;9.480;2023-05-29T15:35:04;5.30;;;4.70;;
1346;SDS011;667;48.796;9.480;2023-05-29T15:37:30;4.43;;;4.00;;
1346;SDS011;667;48.796;9.480;2023-05-29T15:39:56;4.47;;;4.07;;
1346;SDS011;667;48.796;9.480;2023-05-29T15:42:21;5.33;;;4.10;;
1346;SDS011;667;48.796;9.480;2023-05-29T15:44:47;7.10;;;4.13;;
1346;SDS011;667;48.796;9.480;2023-05-29T15:47:12;4.10;;;3.80;;
1346;SDS011;667;48.796;9.480;2023-05-29T15:49:38;5.40;;;3.97;;
1346;SDS011;667;48.796;9.480;2023-05-29T15:52:04;4.80;;;3.77;;
1346;SDS011;667;48.796;9.480;2023-05-29T15:54:30;4.73;;;4.10;;
1346;SDS011;667;48.796;9.480;2023-05-29T15:56:55;5.00;;;3.80;;